Time;durP1;ratioP1;P1;durP2;ratioP2;P2;SDS_P1;SDS_P2;PMS_P1;PMS_P2;Temp;Humidity;BMP_temperature;BMP_pressure;BME280_temperature;BME280_humidity;BME280_pressure;Samples;Min_cycle;Max_cycle;Signal;HPM_P1;HPM_P2
2021/05/03 06:04:01;;;;;;;6.53;4.93;;;;;;;;;;5104355;27;20443;-70
2021/05/03 06:06:34;;;;;;;9.45;5.50;;;;;;;;;;5097516;28;20025;-69
2021/05/03 06:09:01;;;;;;;8.73;6.10;;;;;;;;;;5098669;28;20051;-70
2021/05/03 06:11:26;;;;;;;6.72;4.75;;;;;;;;;;5095866;28;20114;-69
2021/05/03 06:13:51;;;;;;;24.10;6.05;;;;;;;;;;5104958;28;20429;-64
2021/05/03 06:16:17;;;;;;;7.85;5.03;;;;;;;;;;5102525;28;20149;-69
2021/05/03 06:18:42;;;;;;;6.97;4.90;;;;;;;;;;5091767;28;20008;-72
2021/05/03 06:21:08;;;;;;;6.22;5.03;;;;;;;;;;5104951;28;20016;-72
2021/05/03 06:23:33;;;;;;;6.65;5.45;;;;;;;;;;5106481;28;20044;-71
2021/05/03 06:25:58;;;;;;;7.70;5.00;;;;;;;;;;5105218;28;20039;-71
2021/05/03 06:28:24;;;;;;;9.05;5.38;;;;;;;;;;5115977;28;20055;-72
2021/05/03 06:30:57;;;;;;;8.07;4.90;;;;;;;;;;5124747;28;20451;-72
2021/05/03 06:33:23;;;;;;;7.45;5.32;;;;;;;;;;5124045;28;20047;-70
2021/05/03 06:35:48;;;;;;;5.88;4.97;;;;;;;;;;5108264;28;20058;-73
2021/05/03 06:38:13;;;;;;;13.82;5.95;;;;;;;;;;5127815;28;20432;-71
2021/05/03 06:40:39;;;;;;;8.75;4.25;;;;;;;;;;5109289;28;20383;-68
2021/05/03 06:43:04;;;;;;;7.53;4.65;;;;;;;;;;5109494;28;20483;-73
2021/05/03 06:45:33;;;;;;;5.63;4.50;;;;;;;;;;5125573;28;20417;-75
2021/05/03 06:47:59;;;;;;;14.00;5.38;;;;;;;;;;5091054;28;20016;-74
2021/05/03 06:50:24;;;;;;;17.40;5.28;;;;;;;;;;5118984;28;20030;-69
2021/05/03 06:52:51;;;;;;;9.95;5.45;;;;;;;;;;5110061;28;20039;-69
2021/05/03 06:55:16;;;;;;;8.75;4.70;;;;;;;;;;5106599;28;20027;-67
2021/05/03 06:57:42;;;;;;;17.42;5.35;;;;;;;;;;5128028;28;20541;-68
2021/05/03 07:00:09;;;;;;;9.13;4.75;;;;;;;;;;5110424;28;20353;-69
2021/05/03 07:02:35;;;;;;;9.60;4.03;;;;;;;;;;5126153;28;20043;-67
2021/05/03 07:05:00;;;;;;;6.22;4.57;;;;;;;;;;5129072;28;20145;-68
2021/05/03 07:07:26;;;;;;;13.73;4.70;;;;;;;;;;5110409;28;20011;-68
2021/05/03 07:09:51;;;;;;;7.72;4.60;;;;;;;;;;5127154;28;20106;-68
2021/05/03 07:12:19;;;;;;;6.35;4.50;;;;;;;;;;5128329;28;20493;-71
2021/05/03 07:14:45;;;;;;;5.03;4.35;;;;;;;;;;5118506;28;20020;-66
2021/05/03 07:17:10;;;;;;;6.10;4.10;;;;;;;;;;5096155;28;20069;-70
2021/05/03 07:19:36;;;;;;;8.05;4.72;;;;;;;;;;5113789;28;20016;-68
2021/05/03 07:22:05;;;;;;;5.45;4.03;;;;;;;;;;5114446;28;20039;-69
2021/05/03 07:24:31;;;;;;;7.10;3.95;;;;;;;;;;5107447;28;20100;-69
2021/05/03 07:26:56;;;;;;;7.78;4.60;;;;;;;;;;5101306;28;20111;-68
2021/05/03 07:29:22;;;;;;;8.30;4.40;;;;;;;;;;5093763;28;20015;-68
2021/05/03 07:31:47;;;;;;;10.45;4.38;;;;;;;;;;5093342;28;20024;-67
2021/05/03 07:34:14;;;;;;;4.65;3.92;;;;;;;;;;5094341;28;20053;-70
2021/05/03 07:36:40;;;;;;;8.30;4.18;;;;;;;;;;5109836;28;20430;-69
2021/05/03 07:39:06;;;;;;;6.63;4.40;;;;;;;;;;5111412;28;20011;-70
2021/05/03 07:41:35;;;;;;;12.57;4.68;;;;;;;;;;5077440;28;20019;-71
2021/05/03 07:44:00;;;;;;;;;;;;;;;;;;5094561;28;20043;-70
2021/05/03 07:46:26;;;;;;;6.90;4.10;;;;;;;;;;5093999;28;19911;-71
2021/05/03 07:48:56;;;;;;;8.20;4.75;;;;;;;;;;5094901;28;20035;-72
2021/05/03 07:51:21;;;;;;;11.00;4.20;;;;;;;;;;5113415;28;20027;-72
2021/05/03 07:53:47;;;;;;;6.80;4.03;;;;;;;;;;5114322;28;20016;-74
2021/05/03 07:56:15;;;;;;;9.43;3.65;;;;;;;;;;5114636;28;20019;-73
2021/05/03 07:58:41;;;;;;;7.65;4.68;;;;;;;;;;5096386;28;20365;-68
2021/05/03 08:01:06;;;;;;;7.28;3.92;;;;;;;;;;5113999;28;20385;-70
2021/05/03 08:03:36;;;;;;;5.63;4.20;;;;;;;;;;5113472;28;20160;-67
2021/05/03 08:06:02;;;;;;;7.38;3.97;;;;;;;;;;5096881;28;20122;-69
2021/05/03 08:08:27;;;;;;;5.97;4.25;;;;;;;;;;5113917;28;20163;-69
2021/05/03 08:10:52;;;;;;;6.53;4.18;;;;;;;;;;5113326;28;20038;-72
2021/05/03 08:13:18;;;;;;;4.97;3.90;;;;;;;;;;5113775;28;20020;-69
2021/05/03 08:15:47;;;;;;;5.00;3.83;;;;;;;;;;5113062;28;20024;-72
2021/05/03 08:18:12;;;;;;;5.25;3.72;;;;;;;;;;5113733;28;20069;-72
2021/05/03 08:20:38;;;;;;;7.40;3.70;;;;;;;;;;5095868;28;20023;-72
2021/05/03 08:23:08;;;;;;;10.38;3.85;;;;;;;;;;5112349;28;20037;-72
2021/05/03 08:25:34;;;;;;;4.97;3.33;;;;;;;;;;5111603;28;20011;-72
2021/05/03 08:27:59;;;;;;;9.00;3.03;;;;;;;;;;5112973;28;20012;-72
2021/05/03 08:30:25;;;;;;;6.00;3.10;;;;;;;;;;5111999;28;20541;-75
2021/05/03 08:32:50;;;;;;;3.80;2.47;;;;;;;;;;5112714;28;20124;-71
2021/05/03 08:35:16;;;;;;;4.43;2.88;;;;;;;;;;5113566;28;20073;-72
2021/05/03 08:37:41;;;;;;;4.63;3.15;;;;;;;;;;5093772;28;20467;-72
2021/05/03 08:40:07;;;;;;;7.45;2.60;;;;;;;;;;5113062;28;20463;-70
2021/05/03 08:42:33;;;;;;;7.28;2.50;;;;;;;;;;5113965;28;20016;-71
2021/05/03 08:44:58;;;;;;;14.65;2.80;;;;;;;;;;5094919;28;20070;-72
2021/05/03 08:47:27;;;;;;;5.47;2.92;;;;;;;;;;5094837;28;20463;-70
2021/05/03 08:50:04;;;;;;;3.53;2.95;;;;;;;;;;5111494;28;20046;-71
2021/05/03 08:52:40;;;;;;;5.68;3.22;;;;;;;;;;5103971;28;20035;-73
2021/05/03 08:55:06;;;;;;;4.03;3.15;;;;;;;;;;5083353;28;20024;-71
2021/05/03 08:57:32;;;;;;;10.85;4.10;;;;;;;;;;5104842;28;20019;-71
2021/05/03 08:59:57;;;;;;;6.38;2.88;;;;;;;;;;5112924;28;20027;-71
2021/05/03 09:02:23;;;;;;;5.47;2.63;;;;;;;;;;5112747;28;20051;-72
2021/05/03 09:04:48;;;;;;;4.90;2.60;;;;;;;;;;5113560;28;20084;-72
2021/05/03 09:07:15;;;;;;;6.55;2.97;;;;;;;;;;5113125;28;20008;-71
2021/05/03 09:09:44;;;;;;;8.55;2.58;;;;;;;;;;5094350;28;20023;-70
2021/05/03 09:12:12;;;;;;;10.68;2.58;;;;;;;;;;5095140;28;20008;-71
2021/05/03 09:14:56;;;;;;;8.50;2.40;;;;;;;;;;5094069;28;20031;-68
2021/05/03 09:17:27;;;;;;;4.25;3.03;;;;;;;;;;5112441;28;20111;-67
2021/05/03 09:19:53;;;;;;;6.45;3.00;;;;;;;;;;5102113;28;20058;-67
2021/05/03 09:22:25;;;;;;;7.78;2.65;;;;;;;;;;5093922;28;20508;-67
2021/05/03 09:24:51;;;;;;;8.77;3.20;;;;;;;;;;5087758;28;20034;-67
2021/05/03 09:27:19;;;;;;;7.65;2.38;;;;;;;;;;5112048;28;20019;-67
2021/05/03 09:29:45;;;;;;;4.25;2.47;;;;;;;;;;5110718;28;20024;-68
2021/05/03 09:32:12;;;;;;;7.45;2.63;;;;;;;;;;5111313;28;20540;-69
2021/05/03 09:34:39;;;;;;;5.97;2.30;;;;;;;;;;5093947;28;20434;-68
2021/05/03 09:37:28;;;;;;;4.13;2.22;;;;;;;;;;5111854;28;20571;-68
2021/05/03 09:40:12;;;;;;;5.88;1.83;;;;;;;;;;5110829;28;20115;-68
2021/05/03 09:42:54;;;;;;;5.47;2.20;;;;;;;;;;5110098;28;20042;-68
2021/05/03 09:45:20;;;;;;;9.85;2.50;;;;;;;;;;5111683;28;20019;-68
2021/05/03 09:47:49;;;;;;;5.50;1.85;;;;;;;;;;5112084;28;20024;-68
2021/05/03 09:50:16;;;;;;;4.95;2.05;;;;;;;;;;5112232;28;20069;-68
2021/05/03 09:53:00;;;;;;;7.38;2.15;;;;;;;;;;5094041;28;20020;-69
2021/05/03 09:55:33;;;;;;;3.75;2.00;;;;;;;;;;5112188;28;20024;-69
2021/05/03 09:58:10;;;;;;;6.35;1.90;;;;;;;;;;5094208;28;20548;-68
2021/05/03 10:00:37;;;;;;;5.55;2.22;;;;;;;;;;5112157;28;20062;-69
2021/05/03 10:03:22;;;;;;;4.28;1.80;;;;;;;;;;5093942;28;20126;-68
2021/05/03 10:05:47;;;;;;;3.45;1.73;;;;;;;;;;5083458;28;20531;-68
2021/05/03 10:08:13;;;;;;;6.63;1.55;;;;;;;;;;5098906;28;20015;-67
2021/05/03 10:10:44;;;;;;;5.70;1.80;;;;;;;;;;5082756;28;20465;-67
2021/05/03 10:13:11;;;;;;;5.40;1.80;;;;;;;;;;5102536;28;20114;-67
2021/05/03 10:15:36;;;;;;;7.57;1.75;;;;;;;;;;5108792;28;20068;-66
2021/05/03 10:18:01;;;;;;;13.13;2.28;;;;;;;;;;5097191;28;20027;-68
2021/05/03 10:20:27;;;;;;;8.38;1.65;;;;;;;;;;5103887;28;20023;-67
2021/05/03 10:22:53;;;;;;;9.25;2.08;;;;;;;;;;5108788;28;20061;-68
2021/05/03 10:25:19;;;;;;;6.10;1.80;;;;;;;;;;5102329;28;20023;-67
2021/05/03 10:27:46;;;;;;;6.03;2.05;;;;;;;;;;5100060;28;20042;-68
2021/05/03 10:30:16;;;;;;;6.07;1.55;;;;;;;;;;5104152;28;20027;-67
2021/05/03 10:32:44;;;;;;;6.15;1.80;;;;;;;;;;5075926;28;20568;-67
2021/05/03 10:35:28;;;;;;;2.28;1.48;;;;;;;;;;5068270;28;20418;-68
2021/05/03 10:37:54;;;;;;;2.90;1.35;;;;;;;;;;5101768;28;20069;-68
2021/05/03 10:40:28;;;;;;;8.23;1.60;;;;;;;;;;5104437;28;20031;-68
2021/05/03 10:43:12;;;;;;;10.27;2.35;;;;;;;;;;5097477;28;20031;-67
2021/05/03 10:45:57;;;;;;;11.60;1.85;;;;;;;;;;5100850;28;20582;-68
2021/05/03 10:48:31;;;;;;;8.18;1.77;;;;;;;;;;5107916;27;20055;-68
2021/05/03 10:50:58;;;;;;;3.78;1.60;;;;;;;;;;5111711;27;20023;-64
2021/05/03 10:56:01;;;;;;;7.22;2.40;;;;;;;;;;5120288;27;20023;-71
2021/05/03 10:58:29;;;;;;;3.95;1.92;;;;;;;;;;5131063;27;20023;-71
2021/05/03 11:01:02;;;;;;;10.20;1.80;;;;;;;;;;5116051;27;20016;-69
2021/05/03 11:03:46;;;;;;;4.90;1.60;;;;;;;;;;5124976;27;20124;-71
2021/05/03 11:06:12;;;;;;;7.32;2.20;;;;;;;;;;5118124;27;20019;-72
2021/05/03 11:08:37;;;;;;;5.90;1.95;;;;;;;;;;5130771;27;20034;-71
2021/05/03 11:11:04;;;;;;;5.03;1.95;;;;;;;;;;5121405;27;20015;-68
2021/05/03 11:13:49;;;;;;;7.57;1.80;;;;;;;;;;5123318;27;20016;-69
2021/05/03 11:16:34;;;;;;;5.28;1.80;;;;;;;;;;5112923;27;20065;-72
2021/05/03 11:19:00;;;;;;;9.98;2.28;;;;;;;;;;5118694;27;20015;-67
2021/05/03 11:21:43;;;;;;;3.10;1.77;;;;;;;;;;5115761;27;20012;-66
2021/05/03 11:27:15;;;;;;;6.20;2.00;;;;;;;;;;5113270;28;20096;-67
2021/05/03 11:29:48;;;;;;;5.65;2.40;;;;;;;;;;5117998;27;20031;-68
2021/05/03 11:32:14;;;;;;;3.63;2.05;;;;;;;;;;5113453;27;20023;-71
2021/05/03 11:35:02;;;;;;;5.10;1.88;;;;;;;;;;5115823;27;20026;-69
2021/05/03 11:37:38;;;;;;;6.35;2.17;;;;;;;;;;5118320;27;20027;-69
2021/05/03 11:40:18;;;;;;;8.48;1.90;;;;;;;;;;5088933;28;20547;-69
2021/05/03 11:43:03;;;;;;;10.32;2.03;;;;;;;;;;5112620;27;20035;-69
2021/05/03 11:45:30;;;;;;;7.63;2.35;;;;;;;;;;5113620;27;20771;-70
2021/05/03 11:47:56;;;;;;;9.68;2.00;;;;;;;;;;5113182;27;20023;-69
2021/05/03 11:50:23;;;;;;;5.45;1.98;;;;;;;;;;5108969;27;20031;-68
2021/05/03 11:52:48;;;;;;;4.10;1.75;;;;;;;;;;5112175;27;20404;-67
2021/05/03 11:55:15;;;;;;;12.73;2.15;;;;;;;;;;5123719;27;20019;-70
2021/05/03 11:57:45;;;;;;;5.55;2.03;;;;;;;;;;5114200;27;20015;-69
2021/05/03 12:00:12;;;;;;;4.10;1.80;;;;;;;;;;5098962;28;20038;-68
2021/05/03 12:02:37;;;;;;;3.55;1.58;;;;;;;;;;5131471;27;20150;-67
2021/05/03 12:05:21;;;;;;;5.05;1.75;;;;;;;;;;5127935;27;20546;-68
2021/05/03 12:07:47;;;;;;;3.95;1.60;;;;;;;;;;5116670;27;20506;-68
2021/05/03 12:10:13;;;;;;;12.10;1.98;;;;;;;;;;5115400;27;20061;-67
2021/05/03 12:12:41;;;;;;;8.80;1.80;;;;;;;;;;5119811;27;20498;-66
2021/05/03 12:15:30;;;;;;;3.20;1.67;;;;;;;;;;5094172;28;20518;-70
2021/05/03 12:18:01;;;;;;;7.20;1.98;;;;;;;;;;5076290;28;20044;-70
2021/05/03 12:20:29;;;;;;;4.95;1.80;;;;;;;;;;5050948;28;20522;-70
2021/05/03 12:23:01;;;;;;;8.85;1.60;;;;;;;;;;5070147;28;20044;-69
2021/05/03 12:25:30;;;;;;;6.20;1.80;;;;;;;;;;5066358;28;20039;-69
2021/05/03 12:27:56;;;;;;;5.03;1.83;;;;;;;;;;5069891;28;20433;-67
2021/05/03 12:30:23;;;;;;;8.50;1.83;;;;;;;;;;5071437;28;20036;-67
2021/05/03 12:32:49;;;;;;;7.88;2.08;;;;;;;;;;5070199;28;20033;-67
2021/05/03 12:35:16;;;;;;;6.63;1.80;;;;;;;;;;5070930;28;20032;-68
2021/05/03 12:37:42;;;;;;;4.38;1.70;;;;;;;;;;5069058;28;20028;-67
2021/05/03 12:40:14;;;;;;;4.13;1.75;;;;;;;;;;5068128;28;20028;-68
2021/05/03 12:42:47;;;;;;;7.18;1.90;;;;;;;;;;5070179;28;20132;-68
2021/05/03 12:45:25;;;;;;;3.90;1.55;;;;;;;;;;5071182;28;20518;-68
2021/05/03 12:50:47;;;;;;;2.08;1.60;;;;;;;;;;5085644;28;20027;-70
2021/05/03 12:53:23;;;;;;;8.95;1.52;;;;;;;;;;5119817;27;20087;-70
2021/05/03 12:56:05;;;;;;;5.70;1.67;;;;;;;;;;5112951;27;20023;-69
2021/05/03 12:58:38;;;;;;;2.83;1.40;;;;;;;;;;5124362;27;20539;-69
2021/05/03 13:01:13;;;;;;;3.83;1.40;;;;;;;;;;5125851;27;20030;-69
2021/05/03 13:03:48;;;;;;;5.40;1.55;;;;;;;;;;5120116;27;20048;-69
2021/05/03 13:06:22;;;;;;;4.88;1.55;;;;;;;;;;5130038;27;20114;-69
2021/05/03 13:12:02;;;;;;;5.65;1.60;;;;;;;;;;5110200;27;20079;-69
2021/05/03 13:29:07;;;;;;;5.43;1.85;;;;;;;;;;5102981;28;20411;-68
2021/05/03 13:31:33;;;;;;;2.20;1.42;;;;;;;;;;5102392;28;20387;-68
2021/05/03 13:33:59;;;;;;;5.47;1.50;;;;;;;;;;5120610;27;20015;-69
2021/05/03 13:36:25;;;;;;;9.45;1.50;;;;;;;;;;5115756;27;20115;-67
2021/05/03 13:38:51;;;;;;;2.97;1.83;;;;;;;;;;5098762;27;20126;-67
2021/05/03 13:41:16;;;;;;;7.35;1.90;;;;;;;;;;5122819;27;20031;-69
2021/05/03 13:43:42;;;;;;;4.43;1.42;;;;;;;;;;5124574;27;20107;-68
2021/05/03 13:46:07;;;;;;;19.15;2.13;;;;;;;;;;5114609;27;20019;-68
2021/05/03 13:48:33;;;;;;;6.13;2.03;;;;;;;;;;5110832;27;20051;-69
2021/05/03 13:50:59;;;;;;;4.75;1.60;;;;;;;;;;5118332;27;20071;-69
2021/05/03 13:53:24;;;;;;;4.60;1.50;;;;;;;;;;5123495;27;20019;-69
2021/05/03 13:55:54;;;;;;;4.00;1.42;;;;;;;;;;5117506;28;20361;-70
2021/05/03 13:58:19;;;;;;;9.98;1.95;;;;;;;;;;5129315;27;20031;-70
2021/05/03 14:00:49;;;;;;;3.25;1.48;;;;;;;;;;5080743;28;20428;-68
2021/05/03 14:03:15;;;;;;;8.82;1.80;;;;;;;;;;5102740;28;20143;-68
2021/05/03 14:05:40;;;;;;;5.03;2.00;;;;;;;;;;5119000;28;20048;-71
2021/05/03 14:08:06;;;;;;;8.73;1.60;;;;;;;;;;5110605;28;20434;-71
2021/05/03 14:10:31;;;;;;;7.80;1.90;;;;;;;;;;5096197;28;20022;-70
2021/05/03 14:12:57;;;;;;;8.13;1.60;;;;;;;;;;5107827;28;20429;-70
2021/05/03 14:15:24;;;;;;;3.72;1.40;;;;;;;;;;5103950;28;20018;-70
2021/05/03 14:17:50;;;;;;;10.93;2.47;;;;;;;;;;5118549;28;20595;-69
